Akita Airport, Japan

10:38 AM JST on September 03, 2014 (GMT +0900)
Akita | Change Station
CLOSE
Current Station
Airport
Location: Akita Airport,
Elevation: 315 ft
Nearby Weather Stations

Elev 315 ft 39.62 °N, 140.22 °E | Updated 38 minutes ago

Partly Cloudy
Partly Cloudy
73 °F
Feels Like 73 °F
N
10
Wind Variable Wind from ESE

Today
High -- | Low -- °F
--% Chance of Precip.
Yesterday
High -- | Low -- °F
Precip. -- in
5:08 AM 6:08 PM
First Quarter, 57% visible
Pressure 29.95 in
Visibility 6.2 miles
Clouds Few 2000 ft
Dew Point 61 °F
Humidity 65%
Rainfall 0.00 in
Snow Depth Not available.
UV 7 out of 12
Pollen Not available.
Air Quality Not available.
Flu Activity Not available.
METAR RJSK 030100Z 12009KT 9999 FEW020 BKN/// 23/16 Q1014

More Conditions Fewer Conditions

Pressure 29.95 in
Visibility 6.2 miles
Clouds Few 2000 ft
Dew Point 61 °F
Humidity 65%
Rainfall 0.00 in
Snow Depth Not available.
UV 7 out of 12
Pollen Not available.
Air Quality Not available.
Flu Activity Not available.
METAR RJSK 030100Z 12009KT 9999 FEW020 BKN/// 23/16 Q1014

More Conditions Fewer Conditions

10-Day Weather Forecast

Almanac

Astronomy

Sep. 03, 2014 Rise Set
Actual Time 5:08 AM JST 6:08 PM JST
Civil Twilight 4:41 AM JST 6:35 PM JST
Nautical Twilight 4:08 AM JST 7:08 PM JST
Astronomical Twilight 3:34 AM JST 7:42 PM JST
Moon 1:12 PM JST 11:23 PM JST
Length of Visible Light 13h 54m
Length of Day
12h 59m
Tomorrow will be 2m 30s shorter.
First Quarter, 57% of the Moon is Illuminated
Sep 2
First Quarter
Sep 8
Full
Sep 15
Last Quarter
Sep 24
New
Oct 1
First Quarter

Yesterday's Extremes

Country Highs Country Lows

Community

WunderPhotos

Upload Photos

1,749,829 photos uploaded!

Nearby

Snow Depth

Not available.

Earthquake Activity

City Distance Mag. Time & Date
No recent earthquake activity has been reported nearby.
Minimum magnitude displayed is 2.5.

Coastal Water Temperatures

Place Temperature
No Stations Reporting

Nearby Weather Stations